createdAt,value
2023-01-13T00:01:17.416Z,65.12
2023-01-13T00:03:45.152Z,64.98
2023-01-13T00:06:13.623Z,64.93
2023-01-13T00:08:41.016Z,64.66
2023-01-13T00:11:09.786Z,64.75
2023-01-13T00:13:38.514Z,65.55
2023-01-13T00:16:07.477Z,65.89
2023-01-13T00:18:36.916Z,65.24
2023-01-13T00:21:06.268Z,65.00
2023-01-13T00:23:34.505Z,65.60
2023-01-13T00:26:05.134Z,64.92
2023-01-13T00:28:32.528Z,64.86
2023-01-13T00:31:06.976Z,65.23
2023-01-13T00:33:35.215Z,65.00
2023-01-13T00:36:03.747Z,65.17
2023-01-13T00:38:31.551Z,66.08
2023-01-13T00:41:00.249Z,65.60
2023-01-13T00:43:28.141Z,65.39
2023-01-13T00:45:55.520Z,65.44
2023-01-13T00:48:23.824Z,65.28
2023-01-13T00:50:59.887Z,66.71
2023-01-13T00:53:28.146Z,65.32
2023-01-13T00:56:09.999Z,65.20
2023-01-13T00:58:37.648Z,64.94
2023-01-13T01:01:07.259Z,65.24
2023-01-13T01:03:34.921Z,64.62
2023-01-13T01:06:19.454Z,65.20
2023-01-13T01:08:46.830Z,64.72
2023-01-13T01:11:19.352Z,65.46
2023-01-13T01:13:46.770Z,64.63
2023-01-13T01:16:15.658Z,64.13
2023-01-13T01:18:44.618Z,64.42
2023-01-13T01:21:12.027Z,64.61
2023-01-13T01:23:39.689Z,64.34
2023-01-13T01:26:18.676Z,64.40
2023-01-13T01:28:46.349Z,64.43
2023-01-13T01:31:27.597Z,64.54
2023-01-13T01:33:55.423Z,64.46
2023-01-13T01:36:23.533Z,64.84
2023-01-13T01:38:50.935Z,65.86
2023-01-13T01:41:21.575Z,65.04
2023-01-13T01:43:59.571Z,64.32
2023-01-13T01:46:27.776Z,64.02
2023-01-13T01:48:58.342Z,64.31
2023-01-13T01:51:25.794Z,64.32
2023-01-13T01:53:53.848Z,63.73
2023-01-13T01:56:21.254Z,63.83
2023-01-13T01:58:51.150Z,64.04
2023-01-13T02:01:18.922Z,63.97
2023-01-13T02:03:52.702Z,64.02
2023-01-13T02:06:20.112Z,64.45
2023-01-13T02:08:47.721Z,63.90
2023-01-13T02:11:51.664Z,63.83
2023-01-13T02:14:20.339Z,63.60
2023-01-13T02:17:28.149Z,63.83
2023-01-13T02:20:29.443Z,63.63
2023-01-13T02:23:35.128Z,64.17
2023-01-13T02:26:21.652Z,63.57
2023-01-13T02:29:14.145Z,63.65
2023-01-13T02:31:42.219Z,63.48
2023-01-13T02:34:11.700Z,63.30
2023-01-13T02:36:57.343Z,63.35
2023-01-13T02:40:02.939Z,63.87
2023-01-13T02:42:53.853Z,63.68
2023-01-13T02:45:50.864Z,63.60
2023-01-13T02:48:18.264Z,63.58
2023-01-13T02:51:05.079Z,63.43
2023-01-13T02:54:00.767Z,63.06
2023-01-13T02:56:28.447Z,64.15
2023-01-13T02:58:56.172Z,63.32
2023-01-13T03:01:23.786Z,63.35
2023-01-13T03:03:51.473Z,63.13
2023-01-13T03:06:46.195Z,62.80
2023-01-13T03:09:21.594Z,63.63
2023-01-13T03:12:10.967Z,63.05
2023-01-13T03:15:04.567Z,62.74
2023-01-13T03:17:45.070Z,63.31
2023-01-13T03:20:32.374Z,63.45
2023-01-13T03:23:07.471Z,63.02
2023-01-13T03:25:49.568Z,63.26
2023-01-13T03:28:41.372Z,63.24
2023-01-13T03:31:12.987Z,63.56
2023-01-13T03:33:46.566Z,63.40
2023-01-13T03:36:14.996Z,63.16
2023-01-13T03:38:44.422Z,63.11
2023-01-13T03:41:39.066Z,65.03
2023-01-13T03:44:22.966Z,63.73
2023-01-13T03:46:56.717Z,63.55
2023-01-13T03:49:25.980Z,63.35
2023-01-13T03:51:56.493Z,62.46
2023-01-13T03:54:25.391Z,63.39
2023-01-13T03:56:55.974Z,63.57
2023-01-13T03:59:27.006Z,63.49
2023-01-13T04:02:04.806Z,63.53
2023-01-13T04:04:39.276Z,63.31
2023-01-13T04:07:16.066Z,62.87
2023-01-13T04:09:50.773Z,64.15
2023-01-13T04:12:54.993Z,64.15
2023-01-13T04:15:23.878Z,63.37
2023-01-13T04:17:51.692Z,64.18
2023-01-13T04:20:19.102Z,63.36
2023-01-13T04:22:46.831Z,63.19
2023-01-13T04:25:14.357Z,62.80
2023-01-13T04:27:41.778Z,63.55
2023-01-13T04:30:10.099Z,63.09
2023-01-13T04:32:37.471Z,62.67
2023-01-13T04:35:05.399Z,62.97
2023-01-13T04:37:33.508Z,63.22
2023-01-13T04:40:00.869Z,63.39
2023-01-13T04:42:28.219Z,62.74
2023-01-13T04:44:56.657Z,62.82
2023-01-13T04:47:24.151Z,62.85
2023-01-13T04:49:51.519Z,62.50
2023-01-13T04:52:19.373Z,62.18
2023-01-13T04:54:46.708Z,62.44
2023-01-13T04:57:14.129Z,62.57
2023-01-13T04:59:42.134Z,62.92
2023-01-13T05:02:09.588Z,62.86
2023-01-13T05:04:37.015Z,63.37
2023-01-13T05:07:04.683Z,70.69
2023-01-13T05:09:32.047Z,67.09
2023-01-13T05:12:18.277Z,64.83
2023-01-13T05:15:04.233Z,64.60
2023-01-13T05:17:31.520Z,64.01
2023-01-13T05:19:59.136Z,63.91
2023-01-13T05:22:45.432Z,63.34
2023-01-13T05:25:22.156Z,63.08
2023-01-13T05:27:49.954Z,63.58
2023-01-13T05:30:17.885Z,63.41
2023-01-13T05:32:45.297Z,63.40
2023-01-13T05:35:12.766Z,63.41
2023-01-13T05:37:40.469Z,63.02
2023-01-13T05:40:27.120Z,63.30
2023-01-13T05:43:25.974Z,64.04
2023-01-13T05:46:01.077Z,64.51
2023-01-13T05:48:36.103Z,63.76
2023-01-13T05:51:04.453Z,63.41
2023-01-13T05:53:32.359Z,63.36
2023-01-13T05:55:59.796Z,63.70
2023-01-13T05:58:27.745Z,65.38
2023-01-13T06:01:05.015Z,64.08
2023-01-13T06:03:32.845Z,64.69
2023-01-13T06:06:02.117Z,64.31
2023-01-13T06:08:30.441Z,64.38
2023-01-13T06:10:58.147Z,64.32
2023-01-13T06:13:25.793Z,64.22
2023-01-13T06:15:57.783Z,64.70
2023-01-13T06:18:25.525Z,65.15
2023-01-13T06:20:52.877Z,65.15
2023-01-13T06:23:20.235Z,64.92
2023-01-13T06:26:00.820Z,64.46
2023-01-13T06:28:28.234Z,64.81
2023-01-13T06:30:57.765Z,64.37
2023-01-13T06:33:28.651Z,64.39
2023-01-13T06:35:58.368Z,64.23
2023-01-13T06:38:26.103Z,64.25
2023-01-13T06:40:53.468Z,63.87
2023-01-13T06:43:21.088Z,64.36
2023-01-13T06:45:52.626Z,64.76
2023-01-13T06:48:21.703Z,65.04
2023-01-13T06:50:49.413Z,64.37
2023-01-13T06:53:16.885Z,64.25
2023-01-13T06:55:44.314Z,63.83
2023-01-13T06:58:11.954Z,63.82
2023-01-13T07:00:39.524Z,63.77
2023-01-13T07:03:11.803Z,63.93
2023-01-13T07:05:39.840Z,63.98
2023-01-13T07:08:07.330Z,64.03
2023-01-13T07:10:34.891Z,63.48
2023-01-13T07:13:21.851Z,63.63
2023-01-13T07:16:02.707Z,63.33
2023-01-13T07:18:31.870Z,63.30
2023-01-13T07:21:00.949Z,62.42
2023-01-13T07:23:29.273Z,62.88
2023-01-13T07:25:57.388Z,62.76
2023-01-13T07:28:25.319Z,62.85
2023-01-13T07:30:52.798Z,62.08
2023-01-13T07:33:20.492Z,62.44
2023-01-13T07:35:48.172Z,61.68
2023-01-13T07:38:15.701Z,61.33
2023-01-13T07:40:43.423Z,60.39
2023-01-13T07:43:31.139Z,62.87
2023-01-13T07:45:59.715Z,63.81
2023-01-13T07:48:27.515Z,62.98
2023-01-13T07:50:55.374Z,62.28
2023-01-13T07:53:24.957Z,62.15
2023-01-13T07:55:56.779Z,61.94
2023-01-13T07:58:25.455Z,61.71
2023-01-13T08:00:53.071Z,62.43
2023-01-13T08:03:21.311Z,61.62
2023-01-13T08:05:48.875Z,61.27
2023-01-13T08:08:16.223Z,61.84
2023-01-13T08:10:44.979Z,61.51
2023-01-13T08:13:22.265Z,61.20
2023-01-13T08:15:54.447Z,61.65
2023-01-13T08:18:22.264Z,61.44
2023-01-13T08:20:52.261Z,60.93
2023-01-13T08:23:20.365Z,60.67
2023-01-13T08:25:47.925Z,60.95
2023-01-13T08:28:16.038Z,61.20
2023-01-13T08:30:43.726Z,60.58
2023-01-13T08:33:12.023Z,60.22
2023-01-13T08:35:40.610Z,59.85
2023-01-13T08:38:08.247Z,61.29
2023-01-13T08:40:35.766Z,59.65
2023-01-13T08:43:03.443Z,59.81
2023-01-13T08:45:30.903Z,59.35
2023-01-13T08:47:58.289Z,59.61
2023-01-13T08:50:25.964Z,58.64
2023-01-13T08:52:53.507Z,59.51
2023-01-13T08:55:21.120Z,59.01
2023-01-13T08:57:48.941Z,59.19
2023-01-13T09:00:17.284Z,57.85
2023-01-13T09:02:44.784Z,58.44
2023-01-13T09:05:12.478Z,58.86
2023-01-13T09:07:39.878Z,58.64
2023-01-13T09:10:08.027Z,58.62
2023-01-13T09:12:54.271Z,59.11
2023-01-13T09:15:21.896Z,59.44
2023-01-13T09:17:49.600Z,58.10
2023-01-13T09:20:17.108Z,57.94
2023-01-13T09:22:44.478Z,59.07
2023-01-13T09:25:12.817Z,59.04
2023-01-13T09:27:40.213Z,59.45
2023-01-13T09:30:08.280Z,58.87
2023-01-13T09:32:37.575Z,57.74
2023-01-13T09:35:06.751Z,57.82
2023-01-13T09:37:36.701Z,58.15
2023-01-13T09:40:08.468Z,57.91
2023-01-13T09:43:13.687Z,58.35
2023-01-13T09:45:47.254Z,58.58
2023-01-13T09:48:27.043Z,58.39
2023-01-13T09:51:09.846Z,58.64
2023-01-13T09:53:43.710Z,57.93
2023-01-13T09:56:11.677Z,57.86
2023-01-13T09:58:39.266Z,58.00
2023-01-13T10:01:15.482Z,56.16
2023-01-13T10:03:43.290Z,57.58
2023-01-13T10:06:16.703Z,57.75
2023-01-13T10:08:45.221Z,57.27
2023-01-13T10:11:36.503Z,56.48
2023-01-13T10:14:20.200Z,57.26
2023-01-13T10:16:50.396Z,56.84
2023-01-13T10:19:25.819Z,56.62
2023-01-13T10:22:36.161Z,56.29
2023-01-13T10:25:20.508Z,58.81
2023-01-13T10:27:50.129Z,57.91
2023-01-13T10:30:21.351Z,57.77
2023-01-13T10:33:29.975Z,57.32
2023-01-13T10:36:01.999Z,57.63
2023-01-13T10:38:37.872Z,58.71
2023-01-13T10:41:15.612Z,59.10
2023-01-13T10:43:43.587Z,57.59
2023-01-13T10:46:18.260Z,57.89
2023-01-13T10:48:52.972Z,58.07
2023-01-13T10:51:51.311Z,57.54
2023-01-13T10:54:22.215Z,57.36
2023-01-13T10:56:50.478Z,57.85
2023-01-13T10:59:24.557Z,57.75
2023-01-13T11:02:01.218Z,57.62
2023-01-13T11:04:51.194Z,57.62
2023-01-13T11:07:28.414Z,58.04
2023-01-13T11:10:20.749Z,59.14
2023-01-13T11:13:11.743Z,58.64
2023-01-13T11:15:45.493Z,59.03
2023-01-13T11:18:25.505Z,57.65
2023-01-13T11:20:52.849Z,57.56
2023-01-13T11:23:27.520Z,59.25
2023-01-13T11:25:59.384Z,58.74
2023-01-13T11:28:38.648Z,59.93
2023-01-13T11:31:08.764Z,57.66
2023-01-13T11:33:41.756Z,58.21
2023-01-13T11:36:23.603Z,57.23
2023-01-13T11:38:56.257Z,58.51
2023-01-13T11:41:35.417Z,59.06
2023-01-13T11:44:08.632Z,58.49
2023-01-13T11:46:36.161Z,58.61
2023-01-13T11:49:03.807Z,59.33
2023-01-13T11:51:38.901Z,59.70
2023-01-13T11:54:17.727Z,58.59
2023-01-13T11:57:03.931Z,58.21
2023-01-13T11:59:59.791Z,57.63
2023-01-13T12:02:29.882Z,57.91
2023-01-13T12:05:05.603Z,58.06
2023-01-13T12:07:49.029Z,59.12
2023-01-13T12:10:30.177Z,60.13
2023-01-13T12:13:07.436Z,59.51
2023-01-13T12:16:01.203Z,58.97
2023-01-13T12:18:38.279Z,59.01
2023-01-13T12:21:26.965Z,61.42
2023-01-13T12:24:13.742Z,60.33
2023-01-13T12:26:44.979Z,59.93
2023-01-13T12:29:19.031Z,59.60
2023-01-13T12:31:48.739Z,59.52
2023-01-13T12:34:23.745Z,58.74
2023-01-13T12:37:36.086Z,58.75
2023-01-13T12:40:12.358Z,58.68
2023-01-13T12:43:09.777Z,58.14
2023-01-13T12:45:37.368Z,58.89
2023-01-13T12:48:05.209Z,58.43
2023-01-13T12:50:32.417Z,58.51
2023-01-13T12:53:00.850Z,58.37
2023-01-13T12:55:33.292Z,59.74
2023-01-13T12:58:15.989Z,59.55
2023-01-13T13:00:45.274Z,59.95
2023-01-13T13:03:12.648Z,59.22
2023-01-13T13:05:55.463Z,60.05
2023-01-13T13:08:46.261Z,59.99
2023-01-13T13:11:32.251Z,59.16
2023-01-13T13:14:00.701Z,59.78
2023-01-13T13:16:30.949Z,60.33
2023-01-13T13:19:20.232Z,59.32
2023-01-13T13:22:12.364Z,59.63
2023-01-13T13:24:48.980Z,59.26
2023-01-13T13:27:26.516Z,58.64
2023-01-13T13:29:58.681Z,60.86
2023-01-13T13:32:47.248Z,60.70
2023-01-13T13:35:43.570Z,60.61
2023-01-13T13:38:48.319Z,60.14
2023-01-13T13:41:39.668Z,61.59
2023-01-13T13:44:44.953Z,63.89
2023-01-13T13:47:12.353Z,60.89
2023-01-13T13:49:50.691Z,60.35
2023-01-13T13:52:30.520Z,61.95
2023-01-13T13:55:04.296Z,61.22
2023-01-13T13:57:39.931Z,60.10
2023-01-13T14:00:15.017Z,60.14
2023-01-13T14:02:48.253Z,59.66
2023-01-13T14:05:19.644Z,59.18
2023-01-13T14:07:52.585Z,59.61
2023-01-13T14:10:24.859Z,59.44
2023-01-13T14:12:52.825Z,60.02
2023-01-13T14:15:31.297Z,60.65
2023-01-13T14:18:00.826Z,60.38
2023-01-13T14:20:29.149Z,61.23
2023-01-13T14:23:01.375Z,61.66
2023-01-13T14:25:39.363Z,60.54
2023-01-13T14:28:29.605Z,62.99
2023-01-13T14:30:57.377Z,62.11
2023-01-13T14:33:37.299Z,61.38
2023-01-13T14:36:16.838Z,61.73
2023-01-13T14:38:50.989Z,61.04
2023-01-13T14:41:24.056Z,61.49
2023-01-13T14:43:54.028Z,62.39
2023-01-13T14:46:24.914Z,65.89
2023-01-13T14:48:59.331Z,63.03
2023-01-13T14:51:27.895Z,62.19
2023-01-13T14:53:55.308Z,61.71
2023-01-13T14:56:42.731Z,61.52
2023-01-13T14:59:36.216Z,63.83
2023-01-13T15:02:29.198Z,62.22
2023-01-13T15:05:16.851Z,62.21
2023-01-13T15:07:54.731Z,62.53
2023-01-13T15:10:24.173Z,64.98
2023-01-13T15:12:52.502Z,62.89
2023-01-13T15:15:34.068Z,65.36
2023-01-13T15:18:02.251Z,62.99
2023-01-13T15:20:29.696Z,63.23
2023-01-13T15:23:01.093Z,62.55
2023-01-13T15:25:32.907Z,63.18
2023-01-13T15:28:00.276Z,67.63
2023-01-13T15:30:27.921Z,65.22
2023-01-13T15:32:56.944Z,64.03
2023-01-13T15:35:25.393Z,63.89
2023-01-13T15:37:52.813Z,63.32
2023-01-13T15:40:26.700Z,62.52
2023-01-13T15:43:12.579Z,63.73
2023-01-13T15:45:59.098Z,63.94
2023-01-13T15:48:27.938Z,62.99
2023-01-13T15:50:55.586Z,64.27
2023-01-13T15:53:23.357Z,63.27
2023-01-13T15:55:52.096Z,62.72
2023-01-13T15:58:20.709Z,61.80
2023-01-13T16:00:48.166Z,62.76
2023-01-13T16:03:16.536Z,62.60
2023-01-13T16:05:44.265Z,63.10
2023-01-13T16:08:15.652Z,63.07
2023-01-13T16:10:44.784Z,63.33
2023-01-13T16:13:12.936Z,68.53
2023-01-13T16:15:44.589Z,65.42
2023-01-13T16:18:19.902Z,66.65
2023-01-13T16:20:47.340Z,66.80
2023-01-13T16:23:15.138Z,66.63
2023-01-13T16:25:44.985Z,66.08
2023-01-13T16:28:21.966Z,65.18
2023-01-13T16:30:49.794Z,66.28
2023-01-13T16:33:17.178Z,64.93
2023-01-13T16:36:10.638Z,65.66
2023-01-13T16:38:32.229Z,65.27
2023-01-13T16:40:59.620Z,65.15
2023-01-13T16:43:27.816Z,64.67
2023-01-13T16:45:55.609Z,64.78
2023-01-13T16:48:23.023Z,64.40
2023-01-13T16:50:50.462Z,64.40
2023-01-13T16:53:18.075Z,63.63
2023-01-13T16:55:45.469Z,62.78
2023-01-13T16:58:17.456Z,63.14
2023-01-13T17:00:48.527Z,62.97
2023-01-13T17:03:16.479Z,62.31
2023-01-13T17:05:45.013Z,62.17
2023-01-13T17:08:17.837Z,62.07
2023-01-13T17:10:45.726Z,62.85
2023-01-13T17:13:16.793Z,62.62
2023-01-13T17:15:45.351Z,62.53
2023-01-13T17:18:13.510Z,62.52
2023-01-13T17:20:41.216Z,63.03
2023-01-13T17:23:08.640Z,63.06
2023-01-13T17:25:36.267Z,62.53
2023-01-13T17:28:03.750Z,61.98
2023-01-13T17:30:31.169Z,62.72
2023-01-13T17:32:58.858Z,62.39
2023-01-13T17:35:26.221Z,62.20
2023-01-13T17:37:53.825Z,63.26
2023-01-13T17:40:21.537Z,62.77
2023-01-13T17:42:48.870Z,63.67
2023-01-13T17:45:16.406Z,64.34
2023-01-13T17:47:44.100Z,63.89
2023-01-13T17:50:11.723Z,64.67
2023-01-13T17:52:39.095Z,67.68
2023-01-13T17:55:06.832Z,65.03
2023-01-13T17:57:35.110Z,64.38
2023-01-13T18:00:04.174Z,66.30
2023-01-13T18:02:39.542Z,65.90
2023-01-13T18:05:07.515Z,64.28
2023-01-13T18:07:34.858Z,64.07
2023-01-13T18:10:02.367Z,63.35
2023-01-13T18:12:30.074Z,63.14
2023-01-13T18:14:57.467Z,63.82
2023-01-13T18:17:24.817Z,63.31
2023-01-13T18:20:11.162Z,64.88
2023-01-13T18:22:57.133Z,65.99
2023-01-13T18:25:43.607Z,64.75
2023-01-13T18:28:11.001Z,63.62
2023-01-13T18:30:38.663Z,63.97
2023-01-13T18:33:06.071Z,63.41
2023-01-13T18:35:33.397Z,63.05
2023-01-13T18:38:01.023Z,63.00
2023-01-13T18:40:28.466Z,62.90
2023-01-13T18:42:55.835Z,62.81
2023-01-13T18:45:25.612Z,63.34
2023-01-13T18:47:53.706Z,64.14
2023-01-13T18:50:22.357Z,63.10
2023-01-13T18:52:50.074Z,62.74
2023-01-13T18:55:17.549Z,62.00
2023-01-13T18:57:45.079Z,62.37
2023-01-13T19:00:14.738Z,63.53
2023-01-13T19:02:42.232Z,62.89
2023-01-13T19:05:10.188Z,62.46
2023-01-13T19:07:37.886Z,62.99
2023-01-13T19:10:06.396Z,64.19
2023-01-13T19:12:33.885Z,64.68
2023-01-13T19:15:01.697Z,63.40
2023-01-13T19:17:33.585Z,63.69
2023-01-13T19:20:01.044Z,62.98
2023-01-13T19:22:30.832Z,62.67
2023-01-13T19:24:58.536Z,63.27
2023-01-13T19:27:27.435Z,62.43
2023-01-13T19:29:58.095Z,62.35
2023-01-13T19:32:25.615Z,62.22
2023-01-13T19:34:55.004Z,62.15
2023-01-13T19:37:22.664Z,61.92
2023-01-13T19:39:50.048Z,61.92
2023-01-13T19:42:36.418Z,62.24
2023-01-13T19:45:22.917Z,62.22
2023-01-13T19:47:50.264Z,61.96
2023-01-13T19:50:18.038Z,66.85
2023-01-13T19:52:45.431Z,72.41
2023-01-13T19:55:12.902Z,69.98
2023-01-13T19:57:40.592Z,69.43
2023-01-13T20:00:10.824Z,66.87
2023-01-13T20:02:44.864Z,65.80
2023-01-13T20:05:17.811Z,65.11
2023-01-13T20:07:45.326Z,64.39
2023-01-13T20:10:13.502Z,64.16
2023-01-13T20:12:41.693Z,63.68
2023-01-13T20:15:09.777Z,64.01
2023-01-13T20:17:37.442Z,63.89
2023-01-13T20:20:05.161Z,63.38
2023-01-13T20:22:32.582Z,63.25
2023-01-13T20:25:00.182Z,62.45
2023-01-13T20:27:27.554Z,62.84
2023-01-13T20:29:54.928Z,63.07
2023-01-13T20:32:22.518Z,62.89
2023-01-13T20:34:49.933Z,65.69
2023-01-13T20:37:17.274Z,63.58
2023-01-13T20:39:46.202Z,63.40
2023-01-13T20:42:29.222Z,63.14
2023-01-13T20:44:57.359Z,62.87
2023-01-13T20:47:25.647Z,63.41
2023-01-13T20:49:53.563Z,64.13
2023-01-13T20:52:21.184Z,63.34
2023-01-13T20:54:48.558Z,63.32
2023-01-13T20:57:15.891Z,63.16
2023-01-13T20:59:43.585Z,63.28
2023-01-13T21:02:12.951Z,63.50
2023-01-13T21:04:40.472Z,64.27
2023-01-13T21:07:08.178Z,64.28
2023-01-13T21:09:35.808Z,63.28
2023-01-13T21:12:22.425Z,63.43
2023-01-13T21:15:08.948Z,63.20
2023-01-13T21:17:54.868Z,63.21
2023-01-13T21:20:22.481Z,62.93
2023-01-13T21:22:49.866Z,62.67
2023-01-13T21:25:17.744Z,63.25
2023-01-13T21:27:45.392Z,62.89
2023-01-13T21:30:15.804Z,62.91
2023-01-13T21:32:43.500Z,63.19
2023-01-13T21:35:11.781Z,63.27
2023-01-13T21:37:39.730Z,63.59
2023-01-13T21:40:08.152Z,63.74
2023-01-13T21:42:54.589Z,64.06
2023-01-13T21:45:40.683Z,63.99
2023-01-13T21:48:08.236Z,64.36
2023-01-13T21:50:36.216Z,64.16
2023-01-13T21:53:03.673Z,65.63
2023-01-13T21:55:32.005Z,68.58
2023-01-13T21:58:10.048Z,66.58
2023-01-13T22:00:37.778Z,65.65
2023-01-13T22:03:06.082Z,65.33
2023-01-13T22:05:33.431Z,64.92
2023-01-13T22:08:00.886Z,64.89
2023-01-13T22:10:29.900Z,64.96
2023-01-13T22:13:21.106Z,68.59
2023-01-13T22:15:48.808Z,71.19
2023-01-13T22:18:18.225Z,74.64
2023-01-13T22:20:45.868Z,76.20
2023-01-13T22:23:13.694Z,75.55
2023-01-13T22:25:41.148Z,74.91
2023-01-13T22:28:09.317Z,75.33
2023-01-13T22:30:37.091Z,73.54
2023-01-13T22:33:04.451Z,71.59
2023-01-13T22:35:31.805Z,70.04
2023-01-13T22:37:59.413Z,69.90
2023-01-13T22:40:26.805Z,71.58
2023-01-13T22:42:54.125Z,76.14
2023-01-13T22:45:21.779Z,75.85
2023-01-13T22:47:49.884Z,73.33
2023-01-13T22:50:20.698Z,71.98
2023-01-13T22:52:48.406Z,71.65
2023-01-13T22:55:15.901Z,71.89
2023-01-13T22:57:48.098Z,71.91
2023-01-13T23:00:19.065Z,70.51
2023-01-13T23:02:46.843Z,69.70
2023-01-13T23:05:14.311Z,68.95
2023-01-13T23:07:41.979Z,69.23
2023-01-13T23:10:09.778Z,68.40
2023-01-13T23:12:37.139Z,68.35
2023-01-13T23:15:05.460Z,67.80
2023-01-13T23:17:32.898Z,67.45
2023-01-13T23:20:00.333Z,67.63
2023-01-13T23:22:27.984Z,67.52
2023-01-13T23:24:55.356Z,67.31
2023-01-13T23:27:22.696Z,67.06
2023-01-13T23:29:50.290Z,66.97
2023-01-13T23:32:17.631Z,66.79
2023-01-13T23:34:45.022Z,67.62
2023-01-13T23:37:12.877Z,67.11
2023-01-13T23:39:40.498Z,66.25
2023-01-13T23:42:08.098Z,66.10
2023-01-13T23:44:35.881Z,66.33
2023-01-13T23:47:03.274Z,66.54
2023-01-13T23:49:30.589Z,67.04
2023-01-13T23:51:58.313Z,66.25
2023-01-13T23:54:25.878Z,66.42
2023-01-13T23:56:53.759Z,67.32
2023-01-13T23:59:21.474Z,66.66
